createdAt,value
2023-03-12T00:01:19.863Z,-0.98
2023-03-12T00:03:49.312Z,-0.87
2023-03-12T00:06:18.644Z,-0.86
2023-03-12T00:08:48.060Z,-0.83
2023-03-12T00:11:17.836Z,-0.85
2023-03-12T00:13:49.983Z,-0.78
2023-03-12T00:16:20.521Z,-0.78
2023-03-12T00:18:50.554Z,-0.73
2023-03-12T00:21:20.402Z,-0.64
2023-03-12T00:23:50.136Z,-0.64
2023-03-12T00:26:19.753Z,-0.62
2023-03-12T00:28:49.098Z,-0.69
2023-03-12T00:31:19.422Z,-0.65
2023-03-12T00:33:50.524Z,-0.64
2023-03-12T00:36:19.760Z,-0.60
2023-03-12T00:38:48.798Z,-0.55
2023-03-12T00:41:19.693Z,-0.53
2023-03-12T00:43:49.182Z,-0.51
2023-03-12T00:46:18.105Z,-0.41
2023-03-12T00:48:47.242Z,-0.39
2023-03-12T00:51:17.791Z,-0.40
2023-03-12T00:53:46.874Z,-0.36
2023-03-12T00:56:15.722Z,-0.36
2023-03-12T00:58:45.194Z,-0.28
2023-03-12T01:01:14.440Z,-0.22
2023-03-12T01:03:43.700Z,-0.18
2023-03-12T01:06:12.685Z,-0.25
2023-03-12T01:08:43.544Z,-0.27
2023-03-12T01:11:14.115Z,-0.25
2023-03-12T01:13:43.314Z,-0.20
2023-03-12T01:16:12.125Z,-0.12
2023-03-12T01:18:41.290Z,-0.13
2023-03-12T01:21:10.109Z,-0.21
2023-03-12T01:23:39.522Z,-0.12
2023-03-12T01:26:09.709Z,-0.19
2023-03-12T01:28:38.873Z,-0.14
2023-03-12T01:31:08.376Z,-0.15
2023-03-12T01:33:37.874Z,-0.12
2023-03-12T01:36:07.605Z,-0.14
2023-03-12T01:38:36.804Z,-0.06
2023-03-12T01:41:05.757Z,-0.04
2023-03-12T01:43:38.247Z,-0.04
2023-03-12T01:46:14.345Z,0.03
2023-03-12T01:48:45.522Z,0.05
2023-03-12T01:51:16.239Z,0.13
2023-03-12T01:53:48.131Z,0.12
2023-03-12T01:56:18.478Z,0.07
2023-03-12T01:58:51.697Z,0.10
2023-03-12T02:01:21.202Z,0.12
2023-03-12T02:03:53.087Z,0.16
2023-03-12T02:06:26.647Z,0.10
2023-03-12T02:08:56.580Z,0.18
2023-03-12T02:11:25.362Z,0.20
2023-03-12T02:13:56.392Z,0.16
2023-03-12T02:16:25.865Z,0.15
2023-03-12T02:18:55.752Z,0.11
2023-03-12T02:21:25.772Z,0.14
2023-03-12T02:24:02.960Z,0.01
2023-03-12T02:26:36.885Z,-0.02
2023-03-12T02:29:06.252Z,-0.11
2023-03-12T02:31:38.542Z,0.01
2023-03-12T02:34:09.441Z,0.08
2023-03-12T02:36:38.692Z,0.03
2023-03-12T02:39:07.753Z,-0.16
2023-03-12T02:41:40.142Z,-0.13
2023-03-12T02:44:11.281Z,-0.18
2023-03-12T02:46:41.660Z,-0.25
2023-03-12T02:49:13.329Z,-0.32
2023-03-12T02:51:43.578Z,-0.34
2023-03-12T02:54:13.298Z,-0.29
2023-03-12T02:56:43.579Z,-0.39
2023-03-12T02:59:13.484Z,-0.28
2023-03-12T03:01:44.748Z,-0.49
2023-03-12T03:04:14.422Z,-0.34
2023-03-12T03:06:44.948Z,-0.36
2023-03-12T03:09:14.071Z,-0.36
2023-03-12T03:11:44.315Z,-0.31
2023-03-12T03:14:13.727Z,-0.48
2023-03-12T03:16:42.518Z,-0.49
2023-03-12T03:19:14.338Z,-0.35
2023-03-12T03:21:43.927Z,-0.43
2023-03-12T03:24:13.119Z,-0.51
2023-03-12T03:26:41.984Z,-0.54
2023-03-12T03:29:12.727Z,-0.62
2023-03-12T03:31:41.588Z,-0.66
2023-03-12T03:34:10.689Z,-0.75
2023-03-12T03:36:39.527Z,-0.82
2023-03-12T03:39:13.634Z,-0.82
2023-03-12T03:41:42.541Z,-0.76
2023-03-12T03:44:13.185Z,-0.71
2023-03-12T03:46:42.619Z,-0.84
2023-03-12T03:49:13.530Z,-0.78
2023-03-12T03:51:44.070Z,-0.71
2023-03-12T03:54:16.719Z,-0.78
2023-03-12T03:56:47.612Z,-0.70
2023-03-12T03:59:18.789Z,-0.79
2023-03-12T04:01:50.499Z,-0.85
2023-03-12T04:04:19.717Z,-0.79
2023-03-12T04:06:48.470Z,-0.88
2023-03-12T04:09:18.047Z,-0.89
2023-03-12T04:11:46.831Z,-0.96
2023-03-12T04:14:18.058Z,-1.00
2023-03-12T04:16:47.424Z,-0.96
2023-03-12T04:19:16.644Z,-1.02
2023-03-12T04:21:45.505Z,-1.04
2023-03-12T04:24:16.156Z,-0.96
2023-03-12T04:26:45.729Z,-1.04
2023-03-12T04:29:16.394Z,-1.07
2023-03-12T04:31:46.878Z,-1.07
2023-03-12T04:34:16.152Z,-1.30
2023-03-12T04:36:48.360Z,-1.75
2023-03-12T04:39:18.268Z,-1.87
2023-03-12T04:41:47.594Z,-2.02
2023-03-12T04:44:18.242Z,-1.92
2023-03-12T04:46:48.512Z,-1.97
2023-03-12T04:49:21.364Z,-1.99
2023-03-12T04:51:50.322Z,-2.09
2023-03-12T04:54:21.457Z,-2.06
2023-03-12T04:56:50.906Z,-2.11
2023-03-12T04:59:22.395Z,-2.20
2023-03-12T05:01:52.718Z,-2.16
2023-03-12T05:04:27.136Z,-2.19
2023-03-12T05:06:56.966Z,-2.10
2023-03-12T05:09:26.143Z,-2.11
2023-03-12T05:11:55.152Z,-2.19
2023-03-12T05:14:25.139Z,-2.18
2023-03-12T05:16:56.074Z,-2.03
2023-03-12T05:19:25.293Z,-1.95
2023-03-12T05:21:54.095Z,-1.95
2023-03-12T05:24:23.642Z,-2.07
2023-03-12T05:26:52.578Z,-2.03
2023-03-12T05:29:25.165Z,-2.08
2023-03-12T05:31:56.575Z,-2.06
2023-03-12T05:34:25.820Z,-1.93
2023-03-12T05:36:54.880Z,-2.11
2023-03-12T05:39:27.005Z,-2.02
2023-03-12T05:41:58.863Z,-1.99
2023-03-12T05:44:28.597Z,-1.94
2023-03-12T05:46:59.237Z,-1.97
2023-03-12T05:49:29.581Z,-1.94
2023-03-12T05:51:59.313Z,-1.96
2023-03-12T05:54:29.182Z,-1.93
2023-03-12T05:56:58.423Z,-1.93
2023-03-12T05:59:28.792Z,-1.87
2023-03-12T06:01:59.771Z,-1.94
2023-03-12T06:04:29.690Z,-1.91
2023-03-12T06:06:58.588Z,-1.79
2023-03-12T06:09:28.230Z,-1.74
2023-03-12T06:11:57.611Z,-1.59
2023-03-12T06:14:26.736Z,-1.62
2023-03-12T06:16:56.805Z,-1.65
2023-03-12T06:19:27.559Z,-1.64
2023-03-12T06:21:56.417Z,-1.68
2023-03-12T06:24:25.890Z,-1.76
2023-03-12T06:27:02.946Z,-1.76
2023-03-12T06:29:32.154Z,-1.80
2023-03-12T06:32:01.029Z,-1.79
2023-03-12T06:34:31.736Z,-1.75
2023-03-12T06:37:00.687Z,-1.66
2023-03-12T06:39:30.785Z,-1.66
2023-03-12T06:41:59.738Z,-1.55
2023-03-12T06:44:29.009Z,-1.45
2023-03-12T06:46:58.116Z,-1.46
2023-03-12T06:49:32.164Z,-1.29
2023-03-12T06:52:02.471Z,-1.35
2023-03-12T06:54:31.952Z,-1.26
2023-03-12T06:57:01.357Z,-1.22
2023-03-12T06:59:30.636Z,-1.43
2023-03-12T07:01:59.617Z,-1.26
2023-03-12T07:04:29.072Z,-1.29
2023-03-12T07:06:57.990Z,-1.29
2023-03-12T07:09:28.759Z,-1.52
2023-03-12T07:11:57.899Z,-1.31
2023-03-12T07:14:27.063Z,-1.29
2023-03-12T07:16:56.860Z,-1.42
2023-03-12T07:19:26.408Z,-1.43
2023-03-12T07:21:55.356Z,-1.43
2023-03-12T07:24:24.574Z,-1.51
2023-03-12T07:26:54.787Z,-1.56
2023-03-12T07:29:24.015Z,-1.44
2023-03-12T07:31:52.957Z,-1.39
2023-03-12T07:34:22.474Z,-1.34
2023-03-12T07:36:51.588Z,-1.23
2023-03-12T07:39:20.933Z,-1.15
2023-03-12T07:41:50.467Z,-1.04
2023-03-12T07:44:21.221Z,-0.96
2023-03-12T07:46:50.290Z,-0.77
2023-03-12T07:49:19.897Z,-0.63
2023-03-12T07:51:49.025Z,-0.49
2023-03-12T07:54:18.255Z,-0.45
2023-03-12T07:56:47.196Z,-0.39
2023-03-12T07:59:16.769Z,-0.29
2023-03-12T08:01:47.373Z,-0.23
2023-03-12T08:04:16.795Z,-0.15
2023-03-12T08:06:45.892Z,-0.18
2023-03-12T08:09:15.188Z,-0.08
2023-03-12T08:11:44.640Z,-0.01
2023-03-12T08:14:13.938Z,0.11
2023-03-12T08:16:42.910Z,0.22
2023-03-12T08:19:13.640Z,0.34
2023-03-12T08:21:42.650Z,0.54
2023-03-12T08:24:11.972Z,0.65
2023-03-12T08:26:40.979Z,0.73
2023-03-12T08:29:10.203Z,0.75
2023-03-12T08:31:47.541Z,0.66
2023-03-12T08:34:24.713Z,0.58
2023-03-12T08:36:53.715Z,0.37
2023-03-12T08:39:23.146Z,0.24
2023-03-12T08:41:55.409Z,0.19
2023-03-12T08:44:25.100Z,0.06
2023-03-12T08:46:54.150Z,-0.01
2023-03-12T08:49:24.984Z,-0.17
2023-03-12T08:51:53.868Z,-0.14
2023-03-12T08:54:22.965Z,-0.21
2023-03-12T08:56:53.037Z,-0.06
2023-03-12T08:59:23.501Z,0.07
2023-03-12T09:01:52.382Z,0.10
2023-03-12T09:04:21.783Z,0.11
2023-03-12T09:06:52.217Z,0.10
2023-03-12T09:09:21.614Z,0.10
2023-03-12T09:11:50.591Z,0.20
2023-03-12T09:15:00.988Z,0.34
2023-03-12T09:17:08.854Z,0.37
2023-03-12T09:19:38.233Z,0.47
2023-03-12T09:22:08.606Z,0.58
2023-03-12T09:24:38.011Z,0.66
2023-03-12T09:27:07.062Z,0.73
2023-03-12T09:29:41.408Z,0.72
2023-03-12T09:32:16.717Z,0.65
2023-03-12T09:34:45.842Z,0.43
2023-03-12T09:37:16.223Z,0.51
2023-03-12T09:39:45.666Z,0.66
2023-03-12T09:42:21.107Z,0.71
2023-03-12T09:44:51.243Z,0.77
2023-03-12T09:47:26.465Z,0.82
2023-03-12T09:49:57.057Z,0.84
2023-03-12T09:52:29.584Z,0.98
2023-03-12T09:55:03.523Z,0.99
2023-03-12T09:57:32.403Z,1.18
2023-03-12T10:00:01.663Z,1.17
2023-03-12T10:02:48.894Z,1.10
2023-03-12T10:05:21.710Z,1.01
2023-03-12T10:07:54.078Z,0.98
2023-03-12T10:10:30.299Z,0.93
2023-03-12T10:13:17.131Z,1.05
2023-03-12T10:15:52.073Z,1.12
2023-03-12T10:18:28.330Z,1.29
2023-03-12T10:21:02.139Z,1.46
2023-03-12T10:23:36.248Z,1.64
2023-03-12T10:26:07.975Z,1.83
2023-03-12T10:28:38.776Z,1.76
2023-03-12T10:31:13.601Z,1.59
2023-03-12T10:33:44.737Z,1.10
2023-03-12T10:36:16.394Z,1.09
2023-03-12T10:38:48.547Z,1.24
2023-03-12T10:41:18.514Z,1.47
2023-03-12T10:43:47.581Z,1.68
2023-03-12T10:46:37.878Z,1.90
2023-03-12T10:49:25.086Z,2.15
2023-03-12T10:51:55.320Z,2.33
2023-03-12T10:54:28.380Z,2.55
2023-03-12T10:56:57.693Z,2.74
2023-03-12T10:59:31.388Z,2.85
2023-03-12T11:02:01.717Z,3.05
2023-03-12T11:04:31.188Z,3.28
2023-03-12T11:07:19.204Z,3.51
2023-03-12T11:10:04.482Z,3.77
2023-03-12T11:12:35.520Z,4.21
2023-03-12T11:15:20.119Z,4.75
2023-03-12T11:17:49.440Z,4.31
2023-03-12T11:20:28.183Z,3.95
2023-03-12T11:22:57.874Z,3.83
2023-03-12T11:25:28.926Z,4.66
2023-03-12T11:28:00.639Z,5.34
2023-03-12T11:30:33.803Z,5.59
2023-03-12T11:33:04.151Z,5.94
2023-03-12T11:35:40.652Z,5.99
2023-03-12T11:38:14.806Z,5.25
2023-03-12T11:40:56.545Z,4.86
2023-03-12T11:43:43.911Z,4.40
2023-03-12T11:46:19.263Z,4.19
2023-03-12T11:48:53.184Z,4.25
2023-03-12T11:51:28.003Z,4.96
2023-03-12T11:54:07.950Z,5.18
2023-03-12T11:56:40.311Z,5.32
2023-03-12T11:59:19.043Z,5.63
2023-03-12T12:01:57.438Z,5.93
2023-03-12T12:04:39.080Z,6.16
2023-03-12T12:07:15.599Z,6.09
2023-03-12T12:09:50.155Z,6.23
2023-03-12T12:12:30.290Z,6.21
2023-03-12T12:15:05.414Z,6.24
2023-03-12T12:17:45.294Z,6.42
2023-03-12T12:20:23.721Z,6.77
2023-03-12T12:22:57.574Z,6.96
2023-03-12T12:25:30.644Z,6.92
2023-03-12T12:28:06.935Z,6.95
2023-03-12T12:30:42.063Z,6.75
2023-03-12T12:33:16.346Z,6.41
2023-03-12T12:35:46.649Z,6.61
2023-03-12T12:38:17.713Z,6.85
2023-03-12T12:40:49.336Z,7.15
2023-03-12T12:43:25.362Z,7.24
2023-03-12T12:45:55.937Z,7.37
2023-03-12T12:48:28.137Z,7.20
2023-03-12T12:51:00.426Z,7.17
2023-03-12T12:53:32.206Z,7.07
2023-03-12T12:56:05.382Z,7.09
2023-03-12T12:58:47.086Z,7.19
2023-03-12T13:01:16.915Z,7.39
2023-03-12T13:03:47.242Z,7.29
2023-03-12T13:06:16.473Z,7.42
2023-03-12T13:09:02.515Z,7.13
2023-03-12T13:11:40.759Z,7.12
2023-03-12T13:14:15.760Z,6.81
2023-03-12T13:16:45.809Z,6.45
2023-03-12T13:19:26.278Z,6.06
2023-03-12T13:22:01.489Z,6.04
2023-03-12T13:24:32.282Z,6.17
2023-03-12T13:27:03.864Z,6.31
2023-03-12T13:29:41.523Z,6.40
2023-03-12T13:32:11.472Z,6.46
2023-03-12T13:34:46.092Z,6.20
2023-03-12T13:37:48.560Z,6.24
2023-03-12T13:40:50.635Z,6.18
2023-03-12T13:43:32.235Z,6.25
2023-03-12T13:46:06.838Z,6.27
2023-03-12T13:48:37.017Z,6.56
2023-03-12T13:51:12.721Z,6.37
2023-03-12T13:53:41.946Z,6.54
2023-03-12T13:56:12.236Z,6.49
2023-03-12T13:58:42.690Z,6.56
2023-03-12T14:01:16.271Z,6.10
2023-03-12T14:03:48.146Z,6.33
2023-03-12T14:06:19.650Z,6.05
2023-03-12T14:09:01.616Z,5.90
2023-03-12T14:11:42.388Z,5.97
2023-03-12T14:14:26.393Z,6.04
2023-03-12T14:16:57.573Z,6.02
2023-03-12T14:19:28.088Z,5.86
2023-03-12T14:21:58.138Z,5.76
2023-03-12T14:24:29.912Z,5.78
2023-03-12T14:26:59.445Z,5.82
2023-03-12T14:29:30.258Z,5.74
2023-03-12T14:32:03.428Z,5.59
2023-03-12T14:34:36.404Z,5.60
2023-03-12T14:37:07.991Z,5.59
2023-03-12T14:39:40.703Z,5.60
2023-03-12T14:42:10.272Z,5.64
2023-03-12T14:44:40.468Z,5.59
2023-03-12T14:47:11.883Z,5.59
2023-03-12T14:49:41.760Z,5.58
2023-03-12T14:52:12.665Z,5.60
2023-03-12T14:54:53.707Z,5.42
2023-03-12T14:57:24.592Z,5.40
2023-03-12T14:59:54.301Z,5.38
2023-03-12T15:02:25.044Z,5.49
2023-03-12T15:04:56.599Z,5.49
2023-03-12T15:07:28.696Z,5.40
2023-03-12T15:09:58.079Z,5.42
2023-03-12T15:12:28.873Z,5.49
2023-03-12T15:15:02.137Z,5.56
2023-03-12T15:17:32.839Z,5.59
2023-03-12T15:20:03.025Z,5.43
2023-03-12T15:22:32.146Z,5.31
2023-03-12T15:25:02.957Z,5.16
2023-03-12T15:27:33.517Z,4.94
2023-03-12T15:30:22.722Z,4.86
2023-03-12T15:33:09.677Z,4.80
2023-03-12T15:35:40.659Z,4.59
2023-03-12T15:38:15.672Z,4.39
2023-03-12T15:40:49.747Z,4.41
2023-03-12T15:43:19.806Z,4.09
2023-03-12T15:45:49.900Z,3.85
2023-03-12T15:48:27.810Z,3.53
2023-03-12T15:50:57.104Z,3.63
2023-03-12T15:53:28.750Z,3.64
2023-03-12T15:56:06.463Z,3.64
2023-03-12T15:58:35.957Z,3.46
2023-03-12T16:01:09.310Z,3.53
2023-03-12T16:03:40.091Z,3.46
2023-03-12T16:06:12.495Z,3.49
2023-03-12T16:08:43.722Z,3.49
2023-03-12T16:11:15.773Z,3.45
2023-03-12T16:13:45.716Z,3.41
2023-03-12T16:16:15.011Z,3.37
2023-03-12T16:18:45.613Z,3.33
2023-03-12T16:21:14.801Z,3.28
2023-03-12T16:23:43.609Z,3.13
2023-03-12T16:26:14.132Z,3.10
2023-03-12T16:28:43.188Z,3.12
2023-03-12T16:31:13.307Z,3.07
2023-03-12T16:33:42.241Z,3.09
2023-03-12T16:36:15.767Z,3.10
2023-03-12T16:38:45.132Z,3.08
2023-03-12T16:41:15.425Z,3.03
2023-03-12T16:43:46.306Z,3.02
2023-03-12T16:46:18.636Z,2.98
2023-03-12T16:48:51.395Z,2.93
2023-03-12T16:51:23.626Z,2.86
2023-03-12T16:54:06.873Z,2.81
2023-03-12T16:56:38.216Z,2.77
2023-03-12T16:59:09.091Z,2.76
2023-03-12T17:01:38.545Z,2.66
2023-03-12T17:04:07.674Z,2.55
2023-03-12T17:06:40.044Z,2.49
2023-03-12T17:09:10.909Z,2.45
2023-03-12T17:11:43.004Z,2.40
2023-03-12T17:14:17.050Z,2.36
2023-03-12T17:16:46.377Z,2.32
2023-03-12T17:19:15.763Z,2.30
2023-03-12T17:21:46.493Z,2.29
2023-03-12T17:24:15.309Z,2.24
2023-03-12T17:26:45.340Z,2.24
2023-03-12T17:29:14.272Z,2.17
2023-03-12T17:31:43.485Z,2.09
2023-03-12T17:34:12.359Z,1.99
2023-03-12T17:36:41.633Z,1.91
2023-03-12T17:39:12.034Z,1.82
2023-03-12T17:41:42.296Z,1.71
2023-03-12T17:44:13.729Z,1.63
2023-03-12T17:46:56.488Z,1.63
2023-03-12T17:49:28.072Z,1.61
2023-03-12T17:51:57.201Z,1.53
2023-03-12T17:54:27.454Z,1.47
2023-03-12T17:56:56.665Z,1.45
2023-03-12T17:59:25.644Z,1.44
2023-03-12T18:01:54.885Z,1.42
2023-03-12T18:04:23.863Z,1.39
2023-03-12T18:06:53.920Z,1.37
2023-03-12T18:09:23.308Z,1.34
2023-03-12T18:11:54.200Z,1.34
2023-03-12T18:14:23.612Z,1.31
2023-03-12T18:16:52.691Z,1.31
2023-03-12T18:19:21.633Z,1.24
2023-03-12T18:21:50.896Z,1.22
2023-03-12T18:24:20.263Z,1.20
2023-03-12T18:26:50.549Z,1.18
2023-03-12T18:29:20.743Z,1.20
2023-03-12T18:31:50.049Z,1.18
2023-03-12T18:34:20.766Z,1.22
2023-03-12T18:36:49.992Z,1.24
2023-03-12T18:39:18.970Z,1.21
2023-03-12T18:41:48.313Z,1.20
2023-03-12T18:44:17.235Z,1.16
2023-03-12T18:46:50.922Z,1.09
2023-03-12T18:49:20.016Z,1.10
2023-03-12T18:51:53.437Z,1.14
2023-03-12T18:54:24.491Z,1.18
2023-03-12T18:56:54.439Z,1.12
2023-03-12T18:59:23.403Z,1.00
2023-03-12T19:01:54.234Z,0.98
2023-03-12T19:04:23.366Z,0.92
2023-03-12T19:06:52.473Z,0.89
2023-03-12T19:09:21.493Z,0.84
2023-03-12T19:11:50.868Z,0.83
2023-03-12T19:14:19.666Z,0.78
2023-03-12T19:16:48.935Z,0.78
2023-03-12T19:19:19.738Z,0.74
2023-03-12T19:21:49.089Z,0.76
2023-03-12T19:24:17.919Z,0.77
2023-03-12T19:26:47.102Z,0.78
2023-03-12T19:29:16.570Z,0.78
2023-03-12T19:31:45.706Z,0.77
2023-03-12T19:34:14.689Z,0.77
2023-03-12T19:36:45.185Z,0.78
2023-03-12T19:39:21.025Z,0.76
2023-03-12T19:41:50.951Z,0.76
2023-03-12T19:44:19.766Z,0.78
2023-03-12T19:46:48.924Z,0.77
2023-03-12T19:49:17.868Z,0.73
2023-03-12T19:51:49.817Z,0.67
2023-03-12T19:54:20.204Z,0.60
2023-03-12T19:56:49.859Z,0.55
2023-03-12T19:59:19.122Z,0.56
2023-03-12T20:01:48.257Z,0.56
2023-03-12T20:04:18.802Z,0.55
2023-03-12T20:06:50.005Z,0.53
2023-03-12T20:09:18.934Z,0.56
2023-03-12T20:11:48.019Z,0.60
2023-03-12T20:14:17.002Z,0.58
2023-03-12T20:16:47.257Z,0.56
2023-03-12T20:19:16.939Z,0.56
2023-03-12T20:21:48.288Z,0.57
2023-03-12T20:24:18.534Z,0.60
2023-03-12T20:26:47.917Z,0.57
2023-03-12T20:29:16.685Z,0.51
2023-03-12T20:31:46.024Z,0.40
2023-03-12T20:34:14.898Z,0.35
2023-03-12T20:36:44.139Z,0.33
2023-03-12T20:39:13.240Z,0.35
2023-03-12T20:41:43.747Z,0.36
2023-03-12T20:44:12.720Z,0.39
2023-03-12T20:46:41.829Z,0.45
2023-03-12T20:49:10.698Z,0.50
2023-03-12T20:51:40.680Z,0.52
2023-03-12T20:54:09.536Z,0.49
2023-03-12T20:56:43.149Z,0.47
2023-03-12T20:59:13.602Z,0.48
2023-03-12T21:01:42.894Z,0.48
2023-03-12T21:04:11.677Z,0.45
2023-03-12T21:06:40.790Z,0.47
2023-03-12T21:09:09.559Z,0.49
2023-03-12T21:11:39.918Z,0.55
2023-03-12T21:14:08.731Z,0.55
2023-03-12T21:16:39.448Z,0.48
2023-03-12T21:19:08.299Z,0.47
2023-03-12T21:21:38.046Z,0.35
2023-03-12T21:24:07.050Z,0.33
2023-03-12T21:26:36.096Z,0.31
2023-03-12T21:29:05.001Z,0.32
2023-03-12T21:31:34.101Z,0.32
2023-03-12T21:34:04.371Z,0.34
2023-03-12T21:36:33.647Z,0.37
2023-03-12T21:39:02.527Z,0.37
2023-03-12T21:41:31.692Z,0.39
2023-03-12T21:44:02.098Z,0.37
2023-03-12T21:46:31.506Z,0.36
2023-03-12T21:49:00.707Z,0.37
2023-03-12T21:51:31.297Z,0.38
2023-03-12T21:54:00.144Z,0.37
2023-03-12T21:56:30.352Z,0.37
2023-03-12T21:58:59.291Z,0.37
2023-03-12T22:01:28.638Z,0.41
2023-03-12T22:03:57.504Z,0.42
2023-03-12T22:06:27.482Z,0.38
2023-03-12T22:08:57.684Z,0.38
2023-03-12T22:11:26.872Z,0.41
2023-03-12T22:13:55.635Z,0.43
2023-03-12T22:16:25.058Z,0.42
2023-03-12T22:18:53.871Z,0.48
2023-03-12T22:21:23.385Z,0.50
2023-03-12T22:23:52.789Z,0.52
2023-03-12T22:26:24.323Z,0.52
2023-03-12T22:28:54.202Z,0.59
2023-03-12T22:31:24.072Z,0.64
2023-03-12T22:33:53.180Z,0.65
2023-03-12T22:36:22.267Z,0.68
2023-03-12T22:38:51.182Z,0.72
2023-03-12T22:41:21.590Z,0.72
2023-03-12T22:43:54.092Z,0.72
2023-03-12T22:46:24.716Z,0.71
2023-03-12T22:48:54.583Z,0.68
2023-03-12T22:51:23.806Z,0.65
2023-03-12T22:53:52.613Z,0.59
2023-03-12T22:56:21.844Z,0.58
2023-03-12T22:58:52.439Z,0.55
2023-03-12T23:01:23.012Z,0.52
2023-03-12T23:03:52.442Z,0.52
2023-03-12T23:06:22.415Z,0.56
2023-03-12T23:08:51.831Z,0.56
2023-03-12T23:11:20.961Z,0.55
2023-03-12T23:13:49.827Z,0.54
2023-03-12T23:16:21.281Z,0.61
2023-03-12T23:18:50.452Z,0.64
2023-03-12T23:21:20.459Z,0.64
2023-03-12T23:23:49.731Z,0.67
2023-03-12T23:26:19.707Z,0.69
2023-03-12T23:28:48.556Z,0.72
2023-03-12T23:31:17.715Z,0.72
2023-03-12T23:33:47.949Z,0.71
2023-03-12T23:36:17.911Z,0.66
2023-03-12T23:38:47.946Z,0.63
2023-03-12T23:41:17.606Z,0.59
2023-03-12T23:43:46.661Z,0.54
2023-03-12T23:46:17.261Z,0.52
2023-03-12T23:48:46.932Z,0.49
2023-03-12T23:51:18.107Z,0.51
2023-03-12T23:53:47.913Z,0.50
2023-03-12T23:56:18.419Z,0.50
2023-03-12T23:58:47.622Z,0.52
